sensor_id;sensor_type;location;lat;lon;timestamp;P1;durP1;ratioP1;P2;durP2;ratioP2
34828;SDS011;21042;47.620;12.188;2023-02-28T00:00:36;10.30;;;5.25;;
34828;SDS011;21042;47.620;12.188;2023-02-28T00:03:03;9.18;;;4.82;;
34828;SDS011;21042;47.620;12.188;2023-02-28T00:05:30;11.98;;;5.88;;
34828;SDS011;21042;47.620;12.188;2023-02-28T00:07:57;8.93;;;5.13;;
34828;SDS011;21042;47.620;12.188;2023-02-28T00:10:25;9.07;;;4.80;;
34828;SDS011;21042;47.620;12.188;2023-02-28T00:12:55;10.18;;;5.03;;
34828;SDS011;21042;47.620;12.188;2023-02-28T00:15:25;10.77;;;4.60;;
34828;SDS011;21042;47.620;12.188;2023-02-28T00:17:52;12.55;;;4.55;;
34828;SDS011;21042;47.620;12.188;2023-02-28T00:20:19;10.77;;;5.07;;
34828;SDS011;21042;47.620;12.188;2023-02-28T00:22:47;8.98;;;5.18;;
34828;SDS011;21042;47.620;12.188;2023-02-28T00:25:16;16.75;;;5.78;;
34828;SDS011;21042;47.620;12.188;2023-02-28T00:27:45;9.35;;;5.47;;
34828;SDS011;21042;47.620;12.188;2023-02-28T00:30:20;14.52;;;5.60;;
34828;SDS011;21042;47.620;12.188;2023-02-28T00:32:48;10.82;;;4.95;;
34828;SDS011;21042;47.620;12.188;2023-02-28T00:35:16;15.02;;;5.05;;
34828;SDS011;21042;47.620;12.188;2023-02-28T00:37:42;11.05;;;5.00;;
34828;SDS011;21042;47.620;12.188;2023-02-28T00:40:10;12.70;;;5.28;;
34828;SDS011;21042;47.620;12.188;2023-02-28T00:42:38;10.20;;;5.10;;
34828;SDS011;21042;47.620;12.188;2023-02-28T00:45:06;10.48;;;4.80;;
34828;SDS011;21042;47.620;12.188;2023-02-28T00:47:36;8.88;;;5.53;;
34828;SDS011;21042;47.620;12.188;2023-02-28T00:50:04;9.82;;;5.13;;
34828;SDS011;21042;47.620;12.188;2023-02-28T00:52:31;10.27;;;4.97;;
34828;SDS011;21042;47.620;12.188;2023-02-28T00:54:58;11.50;;;5.72;;
34828;SDS011;21042;47.620;12.188;2023-02-28T00:57:24;13.85;;;5.35;;
34828;SDS011;21042;47.620;12.188;2023-02-28T00:59:52;10.20;;;5.13;;
34828;SDS011;21042;47.620;12.188;2023-02-28T01:02:21;11.95;;;5.05;;
34828;SDS011;21042;47.620;12.188;2023-02-28T01:04:51;12.77;;;5.95;;
34828;SDS011;21042;47.620;12.188;2023-02-28T01:07:18;7.85;;;4.75;;
34828;SDS011;21042;47.620;12.188;2023-02-28T01:12:12;11.40;;;4.88;;
34828;SDS011;21042;47.620;12.188;2023-02-28T01:14:38;11.18;;;5.47;;
34828;SDS011;21042;47.620;12.188;2023-02-28T01:17:06;10.05;;;5.68;;
34828;SDS011;21042;47.620;12.188;2023-02-28T01:19:32;11.20;;;6.15;;
34828;SDS011;21042;47.620;12.188;2023-02-28T01:22:00;12.15;;;5.53;;
34828;SDS011;21042;47.620;12.188;2023-02-28T01:24:28;11.13;;;5.82;;
34828;SDS011;21042;47.620;12.188;2023-02-28T01:26:55;11.50;;;5.70;;
34828;SDS011;21042;47.620;12.188;2023-02-28T01:29:22;11.05;;;6.32;;
34828;SDS011;21042;47.620;12.188;2023-02-28T01:31:51;13.13;;;7.10;;
34828;SDS011;21042;47.620;12.188;2023-02-28T01:34:19;14.57;;;6.53;;
34828;SDS011;21042;47.620;12.188;2023-02-28T01:39:13;14.82;;;5.95;;
34828;SDS011;21042;47.620;12.188;2023-02-28T01:41:40;11.10;;;5.68;;
34828;SDS011;21042;47.620;12.188;2023-02-28T01:44:53;14.98;;;6.40;;
34828;SDS011;21042;47.620;12.188;2023-02-28T01:47:12;13.57;;;6.68;;
34828;SDS011;21042;47.620;12.188;2023-02-28T01:49:39;18.75;;;7.05;;
34828;SDS011;21042;47.620;12.188;2023-02-28T01:52:06;14.57;;;6.32;;
34828;SDS011;21042;47.620;12.188;2023-02-28T01:54:34;12.70;;;6.38;;
34828;SDS011;21042;47.620;12.188;2023-02-28T01:57:07;10.50;;;5.60;;
34828;SDS011;21042;47.620;12.188;2023-02-28T01:59:41;12.68;;;6.38;;
34828;SDS011;21042;47.620;12.188;2023-02-28T02:02:13;14.93;;;6.63;;
34828;SDS011;21042;47.620;12.188;2023-02-28T02:04:46;14.48;;;6.40;;
34828;SDS011;21042;47.620;12.188;2023-02-28T02:07:18;13.88;;;6.78;;
34828;SDS011;21042;47.620;12.188;2023-02-28T02:12:32;16.50;;;6.55;;
34828;SDS011;21042;47.620;12.188;2023-02-28T02:15:20;13.80;;;4.93;;
34828;SDS011;21042;47.620;12.188;2023-02-28T02:18:02;13.68;;;5.97;;
34828;SDS011;21042;47.620;12.188;2023-02-28T02:28:44;15.82;;;7.90;;
34828;SDS011;21042;47.620;12.188;2023-02-28T02:35:11;20.20;;;6.95;;
34828;SDS011;21042;47.620;12.188;2023-02-28T02:37:38;14.52;;;7.10;;
34828;SDS011;21042;47.620;12.188;2023-02-28T02:40:25;13.57;;;6.35;;
34828;SDS011;21042;47.620;12.188;2023-02-28T02:43:07;12.93;;;6.68;;
34828;SDS011;21042;47.620;12.188;2023-02-28T02:45:47;15.15;;;7.40;;
34828;SDS011;21042;47.620;12.188;2023-02-28T02:48:33;15.27;;;6.78;;
34828;SDS011;21042;47.620;12.188;2023-02-28T02:51:04;14.35;;;7.18;;
34828;SDS011;21042;47.620;12.188;2023-02-28T02:53:50;17.17;;;6.80;;
34828;SDS011;21042;47.620;12.188;2023-02-28T02:56:23;12.70;;;6.53;;
34828;SDS011;21042;47.620;12.188;2023-02-28T02:58:53;16.98;;;7.22;;
34828;SDS011;21042;47.620;12.188;2023-02-28T03:01:23;15.32;;;6.50;;
34828;SDS011;21042;47.620;12.188;2023-02-28T03:04:00;11.38;;;6.00;;
34828;SDS011;21042;47.620;12.188;2023-02-28T03:06:33;11.98;;;6.75;;
34828;SDS011;21042;47.620;12.188;2023-02-28T03:09:01;12.60;;;6.13;;
34828;SDS011;21042;47.620;12.188;2023-02-28T03:14:08;13.70;;;6.40;;
34828;SDS011;21042;47.620;12.188;2023-02-28T03:19:26;17.95;;;7.25;;
34828;SDS011;21042;47.620;12.188;2023-02-28T03:34:01;17.17;;;7.15;;
34828;SDS011;21042;47.620;12.188;2023-02-28T03:36:34;12.48;;;6.78;;
34828;SDS011;21042;47.620;12.188;2023-02-28T03:39:12;15.05;;;7.10;;
34828;SDS011;21042;47.620;12.188;2023-02-28T03:44:24;16.08;;;7.05;;
34828;SDS011;21042;47.620;12.188;2023-02-28T03:47:10;14.82;;;6.90;;
34828;SDS011;21042;47.620;12.188;2023-02-28T03:49:49;13.05;;;6.82;;
34828;SDS011;21042;47.620;12.188;2023-02-28T03:52:20;18.50;;;7.32;;
34828;SDS011;21042;47.620;12.188;2023-02-28T03:54:52;18.30;;;7.05;;
34828;SDS011;21042;47.620;12.188;2023-02-28T03:57:33;14.93;;;6.70;;
34828;SDS011;21042;47.620;12.188;2023-02-28T04:00:14;13.23;;;6.85;;
34828;SDS011;21042;47.620;12.188;2023-02-28T04:02:47;12.65;;;6.43;;
34828;SDS011;21042;47.620;12.188;2023-02-28T04:05:21;18.67;;;6.90;;
34828;SDS011;21042;47.620;12.188;2023-02-28T04:07:49;15.73;;;6.93;;
34828;SDS011;21042;47.620;12.188;2023-02-28T04:10:16;13.40;;;7.00;;
34828;SDS011;21042;47.620;12.188;2023-02-28T04:12:43;15.85;;;7.00;;
34828;SDS011;21042;47.620;12.188;2023-02-28T04:15:10;13.93;;;6.55;;
34828;SDS011;21042;47.620;12.188;2023-02-28T04:20:04;16.65;;;6.28;;
34828;SDS011;21042;47.620;12.188;2023-02-28T04:22:35;17.17;;;7.18;;
34828;SDS011;21042;47.620;12.188;2023-02-28T04:25:03;16.63;;;7.53;;
34828;SDS011;21042;47.620;12.188;2023-02-28T04:27:31;17.73;;;7.32;;
34828;SDS011;21042;47.620;12.188;2023-02-28T04:29:58;12.38;;;6.50;;
34828;SDS011;21042;47.620;12.188;2023-02-28T04:32:25;16.08;;;6.40;;
34828;SDS011;21042;47.620;12.188;2023-02-28T04:34:52;11.52;;;6.68;;
34828;SDS011;21042;47.620;12.188;2023-02-28T04:37:19;13.02;;;6.65;;
34828;SDS011;21042;47.620;12.188;2023-02-28T04:39:46;12.82;;;6.13;;
34828;SDS011;21042;47.620;12.188;2023-02-28T04:42:13;15.32;;;6.82;;
34828;SDS011;21042;47.620;12.188;2023-02-28T04:44:41;17.45;;;6.57;;
34828;SDS011;21042;47.620;12.188;2023-02-28T04:47:07;16.50;;;7.13;;
34828;SDS011;21042;47.620;12.188;2023-02-28T04:49:34;15.07;;;6.85;;
34828;SDS011;21042;47.620;12.188;2023-02-28T04:52:01;16.13;;;6.68;;
34828;SDS011;21042;47.620;12.188;2023-02-28T04:54:28;13.07;;;6.22;;
34828;SDS011;21042;47.620;12.188;2023-02-28T04:56:55;13.18;;;6.80;;
34828;SDS011;21042;47.620;12.188;2023-02-28T04:59:22;12.73;;;6.47;;
34828;SDS011;21042;47.620;12.188;2023-02-28T05:01:49;14.75;;;7.05;;
34828;SDS011;21042;47.620;12.188;2023-02-28T05:06:43;13.02;;;6.18;;
34828;SDS011;21042;47.620;12.188;2023-02-28T05:09:10;17.13;;;6.88;;
34828;SDS011;21042;47.620;12.188;2023-02-28T05:11:37;14.98;;;6.75;;
34828;SDS011;21042;47.620;12.188;2023-02-28T05:14:06;14.50;;;6.60;;
34828;SDS011;21042;47.620;12.188;2023-02-28T05:16:37;13.20;;;7.05;;
34828;SDS011;21042;47.620;12.188;2023-02-28T05:21:32;14.23;;;6.05;;
34828;SDS011;21042;47.620;12.188;2023-02-28T05:24:01;15.23;;;7.45;;
34828;SDS011;21042;47.620;12.188;2023-02-28T05:26:30;15.23;;;6.32;;
34828;SDS011;21042;47.620;12.188;2023-02-28T05:28:57;16.42;;;6.75;;
34828;SDS011;21042;47.620;12.188;2023-02-28T05:31:24;17.23;;;7.30;;
34828;SDS011;21042;47.620;12.188;2023-02-28T05:33:51;18.35;;;6.57;;
34828;SDS011;21042;47.620;12.188;2023-02-28T05:36:18;13.85;;;6.15;;
34828;SDS011;21042;47.620;12.188;2023-02-28T05:38:46;15.38;;;6.28;;
34828;SDS011;21042;47.620;12.188;2023-02-28T05:41:14;13.70;;;6.13;;
34828;SDS011;21042;47.620;12.188;2023-02-28T05:43:41;17.80;;;6.80;;
34828;SDS011;21042;47.620;12.188;2023-02-28T05:46:09;18.75;;;7.10;;
34828;SDS011;21042;47.620;12.188;2023-02-28T05:48:37;14.77;;;6.95;;
34828;SDS011;21042;47.620;12.188;2023-02-28T05:51:06;14.35;;;6.63;;
34828;SDS011;21042;47.620;12.188;2023-02-28T05:53:33;16.50;;;6.97;;
34828;SDS011;21042;47.620;12.188;2023-02-28T05:56:00;19.08;;;7.28;;
34828;SDS011;21042;47.620;12.188;2023-02-28T05:58:27;17.30;;;6.95;;
34828;SDS011;21042;47.620;12.188;2023-02-28T06:00:59;17.55;;;7.13;;
34828;SDS011;21042;47.620;12.188;2023-02-28T06:03:44;14.13;;;6.80;;
34828;SDS011;21042;47.620;12.188;2023-02-28T06:06:11;12.82;;;6.50;;
34828;SDS011;21042;47.620;12.188;2023-02-28T06:08:38;14.32;;;7.45;;
34828;SDS011;21042;47.620;12.188;2023-02-28T06:11:05;16.35;;;6.95;;
34828;SDS011;21042;47.620;12.188;2023-02-28T06:13:32;16.63;;;6.47;;
34828;SDS011;21042;47.620;12.188;2023-02-28T06:16:02;18.20;;;7.28;;
34828;SDS011;21042;47.620;12.188;2023-02-28T06:18:29;15.73;;;6.90;;
34828;SDS011;21042;47.620;12.188;2023-02-28T06:20:56;16.30;;;6.07;;
34828;SDS011;21042;47.620;12.188;2023-02-28T06:23:24;19.98;;;7.30;;
34828;SDS011;21042;47.620;12.188;2023-02-28T06:25:50;18.95;;;7.00;;
34828;SDS011;21042;47.620;12.188;2023-02-28T06:28:19;15.27;;;7.63;;
34828;SDS011;21042;47.620;12.188;2023-02-28T06:30:45;23.58;;;9.27;;
34828;SDS011;21042;47.620;12.188;2023-02-28T06:33:12;17.60;;;8.57;;
34828;SDS011;21042;47.620;12.188;2023-02-28T06:35:39;21.60;;;8.13;;
34828;SDS011;21042;47.620;12.188;2023-02-28T06:38:06;20.90;;;8.80;;
34828;SDS011;21042;47.620;12.188;2023-02-28T06:40:32;20.13;;;9.00;;
34828;SDS011;21042;47.620;12.188;2023-02-28T06:43:01;18.02;;;8.77;;
34828;SDS011;21042;47.620;12.188;2023-02-28T06:45:28;24.35;;;9.48;;
34828;SDS011;21042;47.620;12.188;2023-02-28T06:47:55;22.13;;;9.43;;
34828;SDS011;21042;47.620;12.188;2023-02-28T06:50:22;17.05;;;8.15;;
34828;SDS011;21042;47.620;12.188;2023-02-28T06:52:48;18.48;;;8.35;;
34828;SDS011;21042;47.620;12.188;2023-02-28T06:55:20;19.73;;;8.25;;
34828;SDS011;21042;47.620;12.188;2023-02-28T06:57:46;19.77;;;8.85;;
34828;SDS011;21042;47.620;12.188;2023-02-28T07:00:13;21.42;;;9.43;;
34828;SDS011;21042;47.620;12.188;2023-02-28T07:02:40;19.08;;;8.27;;
34828;SDS011;21042;47.620;12.188;2023-02-28T07:05:07;18.60;;;8.63;;
34828;SDS011;21042;47.620;12.188;2023-02-28T07:10:02;13.50;;;6.18;;
34828;SDS011;21042;47.620;12.188;2023-02-28T07:12:29;22.80;;;9.77;;
34828;SDS011;21042;47.620;12.188;2023-02-28T07:14:55;17.27;;;8.63;;
34828;SDS011;21042;47.620;12.188;2023-02-28T07:17:22;19.52;;;8.80;;
34828;SDS011;21042;47.620;12.188;2023-02-28T07:19:49;19.35;;;8.30;;
34828;SDS011;21042;47.620;12.188;2023-02-28T07:22:16;19.10;;;9.23;;
34828;SDS011;21042;47.620;12.188;2023-02-28T07:24:43;20.83;;;8.75;;
34828;SDS011;21042;47.620;12.188;2023-02-28T07:27:09;18.95;;;8.90;;
34828;SDS011;21042;47.620;12.188;2023-02-28T07:29:36;18.05;;;8.73;;
34828;SDS011;21042;47.620;12.188;2023-02-28T07:32:04;20.70;;;9.45;;
34828;SDS011;21042;47.620;12.188;2023-02-28T07:34:31;23.08;;;9.38;;
34828;SDS011;21042;47.620;12.188;2023-02-28T07:36:57;25.70;;;9.50;;
34828;SDS011;21042;47.620;12.188;2023-02-28T07:39:24;23.23;;;9.38;;
34828;SDS011;21042;47.620;12.188;2023-02-28T07:41:51;17.83;;;8.13;;
34828;SDS011;21042;47.620;12.188;2023-02-28T07:44:18;17.60;;;8.75;;
34828;SDS011;21042;47.620;12.188;2023-02-28T07:46:44;17.88;;;9.20;;
34828;SDS011;21042;47.620;12.188;2023-02-28T07:49:11;23.27;;;9.40;;
34828;SDS011;21042;47.620;12.188;2023-02-28T07:51:38;18.02;;;9.23;;
34828;SDS011;21042;47.620;12.188;2023-02-28T07:54:05;19.35;;;9.63;;
34828;SDS011;21042;47.620;12.188;2023-02-28T07:56:32;21.15;;;9.48;;
34828;SDS011;21042;47.620;12.188;2023-02-28T07:58:58;20.23;;;9.68;;
34828;SDS011;21042;47.620;12.188;2023-02-28T08:01:25;20.02;;;9.90;;
34828;SDS011;21042;47.620;12.188;2023-02-28T08:03:52;23.15;;;9.13;;
34828;SDS011;21042;47.620;12.188;2023-02-28T08:06:21;18.20;;;8.52;;
34828;SDS011;21042;47.620;12.188;2023-02-28T08:08:49;20.13;;;8.43;;
34828;SDS011;21042;47.620;12.188;2023-02-28T08:11:17;15.98;;;7.78;;
34828;SDS011;21042;47.620;12.188;2023-02-28T08:13:44;22.38;;;8.93;;
34828;SDS011;21042;47.620;12.188;2023-02-28T08:16:12;18.02;;;8.43;;
34828;SDS011;21042;47.620;12.188;2023-02-28T08:18:53;18.63;;;9.05;;
34828;SDS011;21042;47.620;12.188;2023-02-28T08:21:20;21.10;;;8.35;;
34828;SDS011;21042;47.620;12.188;2023-02-28T08:23:47;17.38;;;8.90;;
34828;SDS011;21042;47.620;12.188;2023-02-28T08:26:16;20.60;;;9.45;;
34828;SDS011;21042;47.620;12.188;2023-02-28T08:28:43;18.08;;;8.95;;
34828;SDS011;21042;47.620;12.188;2023-02-28T08:31:11;24.10;;;9.38;;
34828;SDS011;21042;47.620;12.188;2023-02-28T08:33:40;21.17;;;9.35;;
34828;SDS011;21042;47.620;12.188;2023-02-28T08:36:07;20.38;;;9.00;;
34828;SDS011;21042;47.620;12.188;2023-02-28T08:38:35;19.15;;;8.73;;
34828;SDS011;21042;47.620;12.188;2023-02-28T08:43:33;17.08;;;9.15;;
34828;SDS011;21042;47.620;12.188;2023-02-28T08:46:01;15.00;;;8.60;;
34828;SDS011;21042;47.620;12.188;2023-02-28T08:48:30;20.50;;;9.05;;
34828;SDS011;21042;47.620;12.188;2023-02-28T08:50:59;13.77;;;7.63;;
34828;SDS011;21042;47.620;12.188;2023-02-28T08:53:53;20.17;;;9.25;;
34828;SDS011;21042;47.620;12.188;2023-02-28T08:56:21;16.38;;;8.50;;
34828;SDS011;21042;47.620;12.188;2023-02-28T08:58:49;11.93;;;6.45;;
34828;SDS011;21042;47.620;12.188;2023-02-28T09:01:18;19.58;;;9.43;;
34828;SDS011;21042;47.620;12.188;2023-02-28T09:03:47;20.25;;;8.50;;
34828;SDS011;21042;47.620;12.188;2023-02-28T09:06:16;24.00;;;8.75;;
34828;SDS011;21042;47.620;12.188;2023-02-28T09:08:44;18.48;;;9.15;;
34828;SDS011;21042;47.620;12.188;2023-02-28T09:11:11;19.98;;;9.32;;
34828;SDS011;21042;47.620;12.188;2023-02-28T09:16:06;16.98;;;8.05;;
34828;SDS011;21042;47.620;12.188;2023-02-28T09:18:37;15.85;;;8.60;;
34828;SDS011;21042;47.620;12.188;2023-02-28T09:21:05;19.83;;;8.15;;
34828;SDS011;21042;47.620;12.188;2023-02-28T09:23:33;24.50;;;8.88;;
34828;SDS011;21042;47.620;12.188;2023-02-28T09:26:00;16.20;;;8.73;;
34828;SDS011;21042;47.620;12.188;2023-02-28T09:28:26;15.65;;;7.75;;
34828;SDS011;21042;47.620;12.188;2023-02-28T09:30:53;10.60;;;5.93;;
34828;SDS011;21042;47.620;12.188;2023-02-28T09:33:21;14.85;;;8.48;;
34828;SDS011;21042;47.620;12.188;2023-02-28T09:35:48;17.50;;;9.02;;
34828;SDS011;21042;47.620;12.188;2023-02-28T09:38:17;24.65;;;10.00;;
34828;SDS011;21042;47.620;12.188;2023-02-28T09:40:49;22.08;;;8.25;;
34828;SDS011;21042;47.620;12.188;2023-02-28T09:43:19;17.83;;;9.27;;
34828;SDS011;21042;47.620;12.188;2023-02-28T09:45:56;15.73;;;7.38;;
34828;SDS011;21042;47.620;12.188;2023-02-28T09:48:32;16.85;;;9.07;;
34828;SDS011;21042;47.620;12.188;2023-02-28T09:51:22;14.60;;;8.40;;
34828;SDS011;21042;47.620;12.188;2023-02-28T09:53:59;16.52;;;8.45;;
34828;SDS011;21042;47.620;12.188;2023-02-28T09:56:29;23.08;;;9.02;;
34828;SDS011;21042;47.620;12.188;2023-02-28T09:59:05;17.98;;;8.80;;
34828;SDS011;21042;47.620;12.188;2023-02-28T10:02:02;18.52;;;9.15;;
34828;SDS011;21042;47.620;12.188;2023-02-28T10:04:50;20.25;;;9.48;;
34828;SDS011;21042;47.620;12.188;2023-02-28T10:12:48;19.15;;;9.73;;
34828;SDS011;21042;47.620;12.188;2023-02-28T10:15:18;20.83;;;10.15;;
34828;SDS011;21042;47.620;12.188;2023-02-28T10:17:49;19.25;;;10.13;;
34828;SDS011;21042;47.620;12.188;2023-02-28T10:20:35;20.27;;;9.32;;
34828;SDS011;21042;47.620;12.188;2023-02-28T10:23:14;28.77;;;10.52;;
34828;SDS011;21042;47.620;12.188;2023-02-28T10:25:59;36.30;;;10.95;;
34828;SDS011;21042;47.620;12.188;2023-02-28T10:28:28;22.98;;;11.00;;
34828;SDS011;21042;47.620;12.188;2023-02-28T10:30:57;22.65;;;10.65;;
34828;SDS011;21042;47.620;12.188;2023-02-28T10:33:27;18.13;;;10.10;;
34828;SDS011;21042;47.620;12.188;2023-02-28T10:35:57;23.00;;;10.57;;
34828;SDS011;21042;47.620;12.188;2023-02-28T10:38:28;19.67;;;10.55;;
34828;SDS011;21042;47.620;12.188;2023-02-28T10:44:17;19.73;;;9.73;;
34828;SDS011;21042;47.620;12.188;2023-02-28T10:46:47;19.15;;;9.80;;
34828;SDS011;21042;47.620;12.188;2023-02-28T10:51:56;22.02;;;10.52;;
34828;SDS011;21042;47.620;12.188;2023-02-28T10:59:36;25.25;;;9.82;;
34828;SDS011;21042;47.620;12.188;2023-02-28T11:02:10;16.08;;;7.13;;
34828;SDS011;21042;47.620;12.188;2023-02-28T11:05:25;19.25;;;10.00;;
34828;SDS011;21042;47.620;12.188;2023-02-28T11:07:53;21.13;;;10.63;;
34828;SDS011;21042;47.620;12.188;2023-02-28T11:10:32;19.92;;;10.00;;
34828;SDS011;21042;47.620;12.188;2023-02-28T11:13:02;21.23;;;9.88;;
34828;SDS011;21042;47.620;12.188;2023-02-28T11:15:30;21.63;;;10.27;;
34828;SDS011;21042;47.620;12.188;2023-02-28T11:18:02;20.45;;;10.35;;
34828;SDS011;21042;47.620;12.188;2023-02-28T11:20:48;20.45;;;10.07;;
34828;SDS011;21042;47.620;12.188;2023-02-28T11:23:17;19.77;;;10.02;;
34828;SDS011;21042;47.620;12.188;2023-02-28T11:25:50;19.67;;;10.60;;
34828;SDS011;21042;47.620;12.188;2023-02-28T11:28:24;22.45;;;10.32;;
34828;SDS011;21042;47.620;12.188;2023-02-28T11:31:21;17.55;;;9.88;;
34828;SDS011;21042;47.620;12.188;2023-02-28T11:33:49;19.20;;;11.13;;
34828;SDS011;21042;47.620;12.188;2023-02-28T11:36:19;21.25;;;10.48;;
34828;SDS011;21042;47.620;12.188;2023-02-28T11:38:51;19.38;;;11.15;;
34828;SDS011;21042;47.620;12.188;2023-02-28T11:44:20;21.75;;;11.35;;
34828;SDS011;21042;47.620;12.188;2023-02-28T11:47:12;22.48;;;11.60;;
34828;SDS011;21042;47.620;12.188;2023-02-28T11:56:27;22.13;;;11.02;;
34828;SDS011;21042;47.620;12.188;2023-02-28T12:02:33;23.17;;;11.45;;
34828;SDS011;21042;47.620;12.188;2023-02-28T12:07:48;25.92;;;12.35;;
34828;SDS011;21042;47.620;12.188;2023-02-28T12:10:30;24.73;;;12.02;;
34828;SDS011;21042;47.620;12.188;2023-02-28T12:13:18;23.20;;;12.20;;
34828;SDS011;21042;47.620;12.188;2023-02-28T12:24:50;23.75;;;13.13;;
34828;SDS011;21042;47.620;12.188;2023-02-28T12:27:47;30.10;;;14.18;;
34828;SDS011;21042;47.620;12.188;2023-02-28T12:30:16;26.75;;;13.25;;
34828;SDS011;21042;47.620;12.188;2023-02-28T12:32:53;28.77;;;13.48;;
34828;SDS011;21042;47.620;12.188;2023-02-28T12:35:34;26.05;;;13.75;;
34828;SDS011;21042;47.620;12.188;2023-02-28T12:38:06;31.75;;;14.00;;
34828;SDS011;21042;47.620;12.188;2023-02-28T12:41:03;27.23;;;13.18;;
34828;SDS011;21042;47.620;12.188;2023-02-28T12:43:43;29.00;;;13.60;;
34828;SDS011;21042;47.620;12.188;2023-02-28T12:46:23;27.77;;;13.35;;
34828;SDS011;21042;47.620;12.188;2023-02-28T12:48:56;29.42;;;14.00;;
34828;SDS011;21042;47.620;12.188;2023-02-28T12:51:24;31.17;;;14.98;;
34828;SDS011;21042;47.620;12.188;2023-02-28T12:59:11;28.05;;;13.77;;
34828;SDS011;21042;47.620;12.188;2023-02-28T13:04:26;24.52;;;13.32;;
34828;SDS011;21042;47.620;12.188;2023-02-28T13:07:20;30.63;;;13.80;;
34828;SDS011;21042;47.620;12.188;2023-02-28T13:10:02;25.48;;;11.15;;
34828;SDS011;21042;47.620;12.188;2023-02-28T13:12:33;30.70;;;14.98;;
34828;SDS011;21042;47.620;12.188;2023-02-28T13:17:32;26.50;;;14.95;;
34828;SDS011;21042;47.620;12.188;2023-02-28T13:19:59;30.15;;;15.38;;
34828;SDS011;21042;47.620;12.188;2023-02-28T13:27:50;28.77;;;14.07;;
34828;SDS011;21042;47.620;12.188;2023-02-28T13:33:30;28.08;;;14.50;;
34828;SDS011;21042;47.620;12.188;2023-02-28T13:46:32;35.33;;;15.38;;
34828;SDS011;21042;47.620;12.188;2023-02-28T13:57:58;34.33;;;16.20;;
34828;SDS011;21042;47.620;12.188;2023-02-28T14:00:55;32.15;;;14.50;;
34828;SDS011;21042;47.620;12.188;2023-02-28T14:06:32;37.05;;;15.65;;
34828;SDS011;21042;47.620;12.188;2023-02-28T14:09:21;32.13;;;15.05;;
34828;SDS011;21042;47.620;12.188;2023-02-28T14:18:20;29.02;;;13.95;;
34828;SDS011;21042;47.620;12.188;2023-02-28T14:20:52;33.83;;;15.95;;
34828;SDS011;21042;47.620;12.188;2023-02-28T14:29:06;29.63;;;14.95;;
34828;SDS011;21042;47.620;12.188;2023-02-28T14:37:20;29.50;;;15.38;;
34828;SDS011;21042;47.620;12.188;2023-02-28T14:39:52;33.58;;;15.20;;
34828;SDS011;21042;47.620;12.188;2023-02-28T14:42:27;33.20;;;15.50;;
34828;SDS011;21042;47.620;12.188;2023-02-28T14:44:55;34.22;;;15.80;;
34828;SDS011;21042;47.620;12.188;2023-02-28T14:47:28;29.30;;;14.40;;
34828;SDS011;21042;47.620;12.188;2023-02-28T14:49:58;27.90;;;14.43;;
34828;SDS011;21042;47.620;12.188;2023-02-28T14:52:27;31.17;;;14.45;;
34828;SDS011;21042;47.620;12.188;2023-02-28T14:54:57;31.02;;;15.13;;
34828;SDS011;21042;47.620;12.188;2023-02-28T14:57:27;28.70;;;14.35;;
34828;SDS011;21042;47.620;12.188;2023-02-28T15:02:37;28.80;;;14.30;;
34828;SDS011;21042;47.620;12.188;2023-02-28T15:07:43;31.80;;;15.50;;
34828;SDS011;21042;47.620;12.188;2023-02-28T15:10:24;29.52;;;15.52;;
34828;SDS011;21042;47.620;12.188;2023-02-28T15:12:53;32.58;;;14.35;;
34828;SDS011;21042;47.620;12.188;2023-02-28T15:15:35;35.47;;;15.38;;
34828;SDS011;21042;47.620;12.188;2023-02-28T15:21:18;35.50;;;13.85;;
34828;SDS011;21042;47.620;12.188;2023-02-28T15:23:56;29.95;;;13.57;;
34828;SDS011;21042;47.620;12.188;2023-02-28T15:26:32;29.05;;;14.57;;
34828;SDS011;21042;47.620;12.188;2023-02-28T15:29:08;30.88;;;14.75;;
34828;SDS011;21042;47.620;12.188;2023-02-28T15:31:41;32.95;;;15.48;;
34828;SDS011;21042;47.620;12.188;2023-02-28T15:34:26;29.05;;;14.15;;
34828;SDS011;21042;47.620;12.188;2023-02-28T15:40:17;29.38;;;14.38;;
34828;SDS011;21042;47.620;12.188;2023-02-28T15:43:03;30.15;;;14.70;;
34828;SDS011;21042;47.620;12.188;2023-02-28T15:45:49;34.28;;;15.15;;
34828;SDS011;21042;47.620;12.188;2023-02-28T15:48:29;28.83;;;15.25;;
34828;SDS011;21042;47.620;12.188;2023-02-28T15:51:06;30.55;;;15.50;;
34828;SDS011;21042;47.620;12.188;2023-02-28T15:53:36;30.92;;;14.73;;
34828;SDS011;21042;47.620;12.188;2023-02-28T15:56:15;31.10;;;15.57;;
34828;SDS011;21042;47.620;12.188;2023-02-28T15:58:44;33.97;;;16.15;;
34828;SDS011;21042;47.620;12.188;2023-02-28T16:01:19;33.33;;;16.50;;
34828;SDS011;21042;47.620;12.188;2023-02-28T16:03:56;30.30;;;13.93;;
34828;SDS011;21042;47.620;12.188;2023-02-28T16:06:28;33.40;;;14.85;;
34828;SDS011;21042;47.620;12.188;2023-02-28T16:09:03;34.03;;;15.80;;
34828;SDS011;21042;47.620;12.188;2023-02-28T16:11:37;33.05;;;16.40;;
34828;SDS011;21042;47.620;12.188;2023-02-28T16:14:12;32.22;;;15.20;;
34828;SDS011;21042;47.620;12.188;2023-02-28T16:16:45;40.92;;;17.48;;
34828;SDS011;21042;47.620;12.188;2023-02-28T16:19:15;32.97;;;15.20;;
34828;SDS011;21042;47.620;12.188;2023-02-28T16:21:41;38.53;;;16.13;;
34828;SDS011;21042;47.620;12.188;2023-02-28T16:24:08;34.58;;;16.10;;
34828;SDS011;21042;47.620;12.188;2023-02-28T16:26:35;24.73;;;12.63;;
34828;SDS011;21042;47.620;12.188;2023-02-28T16:29:03;31.42;;;14.93;;
34828;SDS011;21042;47.620;12.188;2023-02-28T16:31:30;34.08;;;15.80;;
34828;SDS011;21042;47.620;12.188;2023-02-28T16:34:00;32.83;;;16.23;;
34828;SDS011;21042;47.620;12.188;2023-02-28T16:36:28;25.88;;;12.95;;
34828;SDS011;21042;47.620;12.188;2023-02-28T16:38:56;35.70;;;15.65;;
34828;SDS011;21042;47.620;12.188;2023-02-28T16:41:24;36.50;;;16.75;;
34828;SDS011;21042;47.620;12.188;2023-02-28T16:43:54;32.70;;;14.75;;
34828;SDS011;21042;47.620;12.188;2023-02-28T16:46:44;34.42;;;16.52;;
34828;SDS011;21042;47.620;12.188;2023-02-28T16:49:11;31.48;;;15.18;;
34828;SDS011;21042;47.620;12.188;2023-02-28T16:51:39;34.20;;;16.08;;
34828;SDS011;21042;47.620;12.188;2023-02-28T16:54:05;20.77;;;10.85;;
34828;SDS011;21042;47.620;12.188;2023-02-28T16:56:32;32.78;;;15.57;;
34828;SDS011;21042;47.620;12.188;2023-02-28T16:59:00;36.67;;;16.02;;
34828;SDS011;21042;47.620;12.188;2023-02-28T17:01:28;35.95;;;16.40;;
34828;SDS011;21042;47.620;12.188;2023-02-28T17:03:55;33.88;;;16.40;;
34828;SDS011;21042;47.620;12.188;2023-02-28T17:06:23;42.03;;;18.00;;
34828;SDS011;21042;47.620;12.188;2023-02-28T17:08:54;34.80;;;16.80;;
34828;SDS011;21042;47.620;12.188;2023-02-28T17:11:21;37.25;;;18.23;;
34828;SDS011;21042;47.620;12.188;2023-02-28T17:13:48;41.50;;;18.90;;
34828;SDS011;21042;47.620;12.188;2023-02-28T17:16:17;28.70;;;12.93;;
34828;SDS011;21042;47.620;12.188;2023-02-28T17:18:49;38.75;;;18.33;;
34828;SDS011;21042;47.620;12.188;2023-02-28T17:21:16;36.30;;;17.08;;
34828;SDS011;21042;47.620;12.188;2023-02-28T17:23:43;29.60;;;13.38;;
34828;SDS011;21042;47.620;12.188;2023-02-28T17:26:14;34.97;;;17.05;;
34828;SDS011;21042;47.620;12.188;2023-02-28T17:28:43;42.72;;;18.75;;